Terminal Aerodrome Forecast
Issued by NWS Grand Junction, CO

Home | Current Version | Previous Version | Text Only | Print | Product List | Glossary On
Versions: 1 2 3 4 5 6 7 8 9 10 11 12 13
000
FTUS45 KGJT 281138
TAFGJT
TAF
KGJT 281138Z 2812/2912 04004KT P6SM -RA SCT025 OVC040
      TEMPO 2813/2816 4SM BR BKN025
     FM281700 29010G15KT P6SM -RA BKN035 OVC050
     FM281900 32015G25KT P6SM -RA SCT035 OVC050
     FM282100 01015G25KT P6SM -RA SCT035 OVC050
     FM290000 01013G22KT P6SM -SHRA OVC050=

USA.gov is the U.S. government's official web portal to all federal, state and local government web resources and services.